sensor_id;sensor_type;location;lat;lon;timestamp;pressure;altitude;pressure_sealevel;temperature;humidity
23253;BME280;11795;47.054;15.408;2023-02-19T00:00:00;97560;;;5.0;77.5
23253;BME280;11795;47.054;15.408;2023-02-19T00:02:00;97570;;;5.2;77.0
23253;BME280;11795;47.054;15.408;2023-02-19T00:04:03;97570;;;5.1;77.3
23253;BME280;11795;47.054;15.408;2023-02-19T00:06:01;97570;;;4.9;78.1
23253;BME280;11795;47.054;15.408;2023-02-19T00:08:00;97570;;;5.1;77.7
23253;BME280;11795;47.054;15.408;2023-02-19T00:10:00;97560;;;5.0;78.0
23253;BME280;11795;47.054;15.408;2023-02-19T00:12:00;97570;;;5.2;77.4
23253;BME280;11795;47.054;15.408;2023-02-19T00:14:01;97560;;;5.2;77.6
23253;BME280;11795;47.054;15.408;2023-02-19T00:16:04;97570;;;5.1;77.9
23253;BME280;11795;47.054;15.408;2023-02-19T00:18:00;97560;;;5.2;77.3
23253;BME280;11795;47.054;15.408;2023-02-19T00:20:00;97570;;;5.1;77.7
23253;BME280;11795;47.054;15.408;2023-02-19T00:22:00;97570;;;5.2;77.3
23253;BME280;11795;47.054;15.408;2023-02-19T00:24:02;97570;;;5.1;77.3
23253;BME280;11795;47.054;15.408;2023-02-19T00:26:01;97570;;;5.0;77.5
23253;BME280;11795;47.054;15.408;2023-02-19T00:28:00;97560;;;5.1;76.7
23253;BME280;11795;47.054;15.408;2023-02-19T00:30:00;97560;;;4.9;77.1
23253;BME280;11795;47.054;15.408;2023-02-19T00:32:00;97560;;;5.1;76.8
23253;BME280;11795;47.054;15.408;2023-02-19T00:34:02;97560;;;4.9;77.3
23253;BME280;11795;47.054;15.408;2023-02-19T00:36:01;97580;;;4.8;77.6
23253;BME280;11795;47.054;15.408;2023-02-19T00:38:00;97570;;;5.0;77.1
23253;BME280;11795;47.054;15.408;2023-02-19T00:40:00;97580;;;4.8;77.7
23253;BME280;11795;47.054;15.408;2023-02-19T00:42:00;97580;;;5.0;77.0
23253;BME280;11795;47.054;15.408;2023-02-19T00:44:01;97580;;;4.8;77.2
23253;BME280;11795;47.054;15.408;2023-02-19T00:46:00;97580;;;4.8;77.5
23253;BME280;11795;47.054;15.408;2023-02-19T00:48:00;97590;;;4.8;77.2
23253;BME280;11795;47.054;15.408;2023-02-19T00:50:00;97590;;;4.7;77.9
23253;BME280;11795;47.054;15.408;2023-02-19T00:52:00;97590;;;4.9;77.8
23253;BME280;11795;47.054;15.408;2023-02-19T00:54:00;97590;;;4.7;78.2
23253;BME280;11795;47.054;15.408;2023-02-19T00:56:00;97580;;;4.6;78.6
23253;BME280;11795;47.054;15.408;2023-02-19T00:58:00;97590;;;4.8;77.7
23253;BME280;11795;47.054;15.408;2023-02-19T01:00:00;97590;;;4.7;78.0
23253;BME280;11795;47.054;15.408;2023-02-19T01:02:00;97580;;;4.9;77.6
23253;BME280;11795;47.054;15.408;2023-02-19T01:04:00;97580;;;4.7;77.9
23253;BME280;11795;47.054;15.408;2023-02-19T01:06:00;97570;;;4.7;78.3
23253;BME280;11795;47.054;15.408;2023-02-19T01:08:00;97560;;;4.8;77.9
23253;BME280;11795;47.054;15.408;2023-02-19T01:10:00;97550;;;4.8;78.2
23253;BME280;11795;47.054;15.408;2023-02-19T01:12:00;97550;;;5.0;77.9
23253;BME280;11795;47.054;15.408;2023-02-19T01:14:00;97550;;;4.8;78.2
23253;BME280;11795;47.054;15.408;2023-02-19T01:16:02;97550;;;4.8;78.5
23253;BME280;11795;47.054;15.408;2023-02-19T01:18:00;97540;;;4.9;77.9
23253;BME280;11795;47.054;15.408;2023-02-19T01:20:00;97550;;;4.8;78.2
23253;BME280;11795;47.054;15.408;2023-02-19T01:22:00;97540;;;4.9;78.1
23253;BME280;11795;47.054;15.408;2023-02-19T01:24:00;97540;;;4.8;78.1
23253;BME280;11795;47.054;15.408;2023-02-19T01:26:02;97550;;;4.7;78.5
23253;BME280;11795;47.054;15.408;2023-02-19T01:28:00;97550;;;4.8;78.4
23253;BME280;11795;47.054;15.408;2023-02-19T01:30:00;97550;;;4.7;78.6
23253;BME280;11795;47.054;15.408;2023-02-19T01:32:00;97540;;;4.8;78.3
23253;BME280;11795;47.054;15.408;2023-02-19T01:34:02;97540;;;4.7;78.5
23253;BME280;11795;47.054;15.408;2023-02-19T01:36:01;97540;;;4.6;78.7
23253;BME280;11795;47.054;15.408;2023-02-19T01:38:00;97540;;;4.8;78.1
23253;BME280;11795;47.054;15.408;2023-02-19T01:40:00;97550;;;4.7;78.5
23253;BME280;11795;47.054;15.408;2023-02-19T01:42:03;97540;;;4.8;78.0
23253;BME280;11795;47.054;15.408;2023-02-19T01:44:02;97540;;;4.6;78.2
23253;BME280;11795;47.054;15.408;2023-02-19T01:46:00;97540;;;4.5;78.6
23253;BME280;11795;47.054;15.408;2023-02-19T01:48:05;97530;;;4.7;78.4
23253;BME280;11795;47.054;15.408;2023-02-19T01:50:00;97530;;;4.5;78.8
23253;BME280;11795;47.054;15.408;2023-02-19T01:52:03;97530;;;4.7;78.6
23253;BME280;11795;47.054;15.408;2023-02-19T01:54:03;97530;;;4.6;78.9
23253;BME280;11795;47.054;15.408;2023-02-19T01:56:00;97520;;;4.5;79.1
23253;BME280;11795;47.054;15.408;2023-02-19T01:58:01;97520;;;4.6;79.1
23253;BME280;11795;47.054;15.408;2023-02-19T02:00:04;97520;;;4.5;80.0
23253;BME280;11795;47.054;15.408;2023-02-19T02:02:00;97510;;;4.7;79.5
23253;BME280;11795;47.054;15.408;2023-02-19T02:04:00;97510;;;4.6;79.7
23253;BME280;11795;47.054;15.408;2023-02-19T02:06:04;97510;;;4.6;80.1
23253;BME280;11795;47.054;15.408;2023-02-19T02:08:11;97520;;;4.7;79.4
23253;BME280;11795;47.054;15.408;2023-02-19T02:10:10;97530;;;4.6;79.9
23253;BME280;11795;47.054;15.408;2023-02-19T02:12:00;97520;;;4.8;79.5
23253;BME280;11795;47.054;15.408;2023-02-19T02:14:00;97520;;;4.6;79.4
23253;BME280;11795;47.054;15.408;2023-02-19T02:16:09;97530;;;4.6;79.8
23253;BME280;11795;47.054;15.408;2023-02-19T02:18:07;97520;;;4.7;79.0
23253;BME280;11795;47.054;15.408;2023-02-19T02:20:11;97530;;;4.6;79.4
23253;BME280;11795;47.054;15.408;2023-02-19T02:22:05;97530;;;4.7;79.1
23253;BME280;11795;47.054;15.408;2023-02-19T02:24:10;97530;;;4.6;79.1
23253;BME280;11795;47.054;15.408;2023-02-19T02:26:08;97540;;;4.5;79.5
23253;BME280;11795;47.054;15.408;2023-02-19T02:28:16;97540;;;4.7;78.9
23253;BME280;11795;47.054;15.408;2023-02-19T02:30:16;97530;;;4.5;79.2
23253;BME280;11795;47.054;15.408;2023-02-19T02:32:02;97530;;;4.7;79.0
23253;BME280;11795;47.054;15.408;2023-02-19T02:34:04;97530;;;4.5;79.1
23253;BME280;11795;47.054;15.408;2023-02-19T02:36:04;97530;;;4.5;79.5
23253;BME280;11795;47.054;15.408;2023-02-19T02:38:04;97520;;;4.6;79.3
23253;BME280;11795;47.054;15.408;2023-02-19T02:40:01;97510;;;4.4;79.7
23253;BME280;11795;47.054;15.408;2023-02-19T02:42:10;97510;;;4.7;79.4
23253;BME280;11795;47.054;15.408;2023-02-19T02:44:00;97510;;;4.5;79.6
23253;BME280;11795;47.054;15.408;2023-02-19T02:46:00;97500;;;4.5;80.1
23253;BME280;11795;47.054;15.408;2023-02-19T02:48:06;97490;;;4.7;79.3
23253;BME280;11795;47.054;15.408;2023-02-19T02:50:04;97480;;;4.6;80.1
23253;BME280;11795;47.054;15.408;2023-02-19T02:52:10;97500;;;4.8;79.7
23253;BME280;11795;47.054;15.408;2023-02-19T02:54:12;97500;;;4.6;79.5
23253;BME280;11795;47.054;15.408;2023-02-19T02:56:01;97510;;;4.6;79.7
23253;BME280;11795;47.054;15.408;2023-02-19T02:58:01;97500;;;4.7;78.5
23253;BME280;11795;47.054;15.408;2023-02-19T03:00:00;97510;;;4.5;79.6
23253;BME280;11795;47.054;15.408;2023-02-19T03:02:14;97510;;;4.7;79.1
23253;BME280;11795;47.054;15.408;2023-02-19T03:04:03;97500;;;4.5;79.1
23253;BME280;11795;47.054;15.408;2023-02-19T03:06:03;97500;;;4.4;79.8
23253;BME280;11795;47.054;15.408;2023-02-19T03:08:04;97500;;;4.5;79.2
23253;BME280;11795;47.054;15.408;2023-02-19T03:10:02;97520;;;4.3;79.7
23253;BME280;11795;47.054;15.408;2023-02-19T03:12:13;97500;;;4.4;80.0
23253;BME280;11795;47.054;15.408;2023-02-19T03:14:14;97510;;;4.3;80.2
23253;BME280;11795;47.054;15.408;2023-02-19T03:16:14;97500;;;4.3;80.6
23253;BME280;11795;47.054;15.408;2023-02-19T03:18:10;97500;;;4.4;80.3
23253;BME280;11795;47.054;15.408;2023-02-19T03:20:04;97500;;;4.4;80.3
23253;BME280;11795;47.054;15.408;2023-02-19T03:22:04;97490;;;4.5;80.2
23253;BME280;11795;47.054;15.408;2023-02-19T03:24:11;97500;;;4.4;80.4
23253;BME280;11795;47.054;15.408;2023-02-19T03:26:04;97500;;;4.3;80.6
23253;BME280;11795;47.054;15.408;2023-02-19T03:28:04;97490;;;4.4;80.0
23253;BME280;11795;47.054;15.408;2023-02-19T03:30:04;97500;;;4.3;80.5
23253;BME280;11795;47.054;15.408;2023-02-19T03:32:03;97500;;;4.5;80.2
23253;BME280;11795;47.054;15.408;2023-02-19T03:34:03;97490;;;4.3;79.9
23253;BME280;11795;47.054;15.408;2023-02-19T03:36:03;97500;;;4.2;80.4
23253;BME280;11795;47.054;15.408;2023-02-19T03:38:04;97490;;;4.3;80.2
23253;BME280;11795;47.054;15.408;2023-02-19T03:40:00;97490;;;4.2;81.0
23253;BME280;11795;47.054;15.408;2023-02-19T03:42:04;97500;;;4.4;80.8
23253;BME280;11795;47.054;15.408;2023-02-19T03:44:06;97500;;;4.3;80.6
23253;BME280;11795;47.054;15.408;2023-02-19T03:46:06;97500;;;4.2;81.1
23253;BME280;11795;47.054;15.408;2023-02-19T03:48:11;97500;;;4.3;80.4
23253;BME280;11795;47.054;15.408;2023-02-19T03:50:06;97500;;;4.2;80.9
23253;BME280;11795;47.054;15.408;2023-02-19T03:52:02;97490;;;4.4;80.7
23253;BME280;11795;47.054;15.408;2023-02-19T03:54:08;97500;;;4.4;80.3
23253;BME280;11795;47.054;15.408;2023-02-19T03:56:05;97500;;;4.3;80.7
23253;BME280;11795;47.054;15.408;2023-02-19T03:58:05;97500;;;4.5;80.0
23253;BME280;11795;47.054;15.408;2023-02-19T04:00:05;97490;;;4.3;80.1
23253;BME280;11795;47.054;15.408;2023-02-19T04:02:04;97500;;;4.3;80.1
23253;BME280;11795;47.054;15.408;2023-02-19T04:04:05;97510;;;4.2;80.1
23253;BME280;11795;47.054;15.408;2023-02-19T04:06:02;97500;;;4.1;80.7
23253;BME280;11795;47.054;15.408;2023-02-19T04:08:03;97510;;;4.2;80.2
23253;BME280;11795;47.054;15.408;2023-02-19T04:10:01;97510;;;4.1;80.7
23253;BME280;11795;47.054;15.408;2023-02-19T04:12:00;97500;;;4.3;80.6
23253;BME280;11795;47.054;15.408;2023-02-19T04:14:04;97490;;;4.2;80.3
23253;BME280;11795;47.054;15.408;2023-02-19T04:16:03;97500;;;4.1;80.8
23253;BME280;11795;47.054;15.408;2023-02-19T04:18:04;97500;;;4.2;80.2
23253;BME280;11795;47.054;15.408;2023-02-19T04:20:02;97490;;;4.1;80.4
23253;BME280;11795;47.054;15.408;2023-02-19T04:22:00;97490;;;4.2;80.3
23253;BME280;11795;47.054;15.408;2023-02-19T04:24:03;97480;;;4.1;80.1
23253;BME280;11795;47.054;15.408;2023-02-19T04:26:02;97490;;;3.9;81.1
23253;BME280;11795;47.054;15.408;2023-02-19T04:28:01;97490;;;4.1;80.4
23253;BME280;11795;47.054;15.408;2023-02-19T04:30:00;97480;;;4.0;80.9
23253;BME280;11795;47.054;15.408;2023-02-19T04:32:00;97480;;;4.1;81.0
23253;BME280;11795;47.054;15.408;2023-02-19T04:34:00;97490;;;4.0;80.8
23253;BME280;11795;47.054;15.408;2023-02-19T04:36:00;97480;;;4.0;81.2
23253;BME280;11795;47.054;15.408;2023-02-19T04:38:00;97490;;;4.1;80.9
23253;BME280;11795;47.054;15.408;2023-02-19T04:40:00;97480;;;4.0;81.1
23253;BME280;11795;47.054;15.408;2023-02-19T04:42:00;97490;;;4.1;81.1
23253;BME280;11795;47.054;15.408;2023-02-19T04:44:00;97490;;;4.1;80.8
23253;BME280;11795;47.054;15.408;2023-02-19T04:46:01;97480;;;4.0;81.2
23253;BME280;11795;47.054;15.408;2023-02-19T04:48:00;97490;;;4.1;80.7
23253;BME280;11795;47.054;15.408;2023-02-19T04:50:00;97480;;;4.0;81.1
23253;BME280;11795;47.054;15.408;2023-02-19T04:52:00;97480;;;4.1;81.1
23253;BME280;11795;47.054;15.408;2023-02-19T04:54:00;97480;;;4.1;81.0
23253;BME280;11795;47.054;15.408;2023-02-19T04:56:05;97480;;;4.0;81.4
23253;BME280;11795;47.054;15.408;2023-02-19T04:58:00;97480;;;4.2;80.8
23253;BME280;11795;47.054;15.408;2023-02-19T05:00:00;97480;;;4.1;81.1
23253;BME280;11795;47.054;15.408;2023-02-19T05:02:00;97470;;;4.2;81.2
23253;BME280;11795;47.054;15.408;2023-02-19T05:04:00;97470;;;4.2;80.7
23253;BME280;11795;47.054;15.408;2023-02-19T05:06:01;97480;;;4.0;81.2
23253;BME280;11795;47.054;15.408;2023-02-19T05:08:00;97480;;;4.2;80.6
23253;BME280;11795;47.054;15.408;2023-02-19T05:10:00;97460;;;4.0;81.7
23253;BME280;11795;47.054;15.408;2023-02-19T05:12:00;97470;;;4.1;81.6
23253;BME280;11795;47.054;15.408;2023-02-19T05:14:00;97480;;;4.1;81.1
23253;BME280;11795;47.054;15.408;2023-02-19T05:16:04;97470;;;4.0;81.4
23253;BME280;11795;47.054;15.408;2023-02-19T05:18:00;97460;;;4.2;80.7
23253;BME280;11795;47.054;15.408;2023-02-19T05:20:00;97470;;;4.1;81.1
23253;BME280;11795;47.054;15.408;2023-02-19T05:22:00;97470;;;4.2;81.1
23253;BME280;11795;47.054;15.408;2023-02-19T05:24:00;97470;;;4.1;81.4
23253;BME280;11795;47.054;15.408;2023-02-19T05:26:03;97480;;;4.1;81.6
23253;BME280;11795;47.054;15.408;2023-02-19T05:28:10;97460;;;4.3;80.9
23253;BME280;11795;47.054;15.408;2023-02-19T05:30:00;97480;;;4.1;81.5
23253;BME280;11795;47.054;15.408;2023-02-19T05:32:00;97450;;;4.2;81.4
23253;BME280;11795;47.054;15.408;2023-02-19T05:34:00;97460;;;4.1;81.3
23253;BME280;11795;47.054;15.408;2023-02-19T05:36:04;97450;;;4.0;81.8
23253;BME280;11795;47.054;15.408;2023-02-19T05:38:00;97450;;;4.2;81.3
23253;BME280;11795;47.054;15.408;2023-02-19T05:40:00;97450;;;4.1;81.6
23253;BME280;11795;47.054;15.408;2023-02-19T05:42:00;97450;;;4.2;81.6
23253;BME280;11795;47.054;15.408;2023-02-19T05:44:00;97470;;;4.2;81.5
23253;BME280;11795;47.054;15.408;2023-02-19T05:46:00;97450;;;4.1;82.0
23253;BME280;11795;47.054;15.408;2023-02-19T05:48:01;97470;;;4.3;81.6
23253;BME280;11795;47.054;15.408;2023-02-19T05:50:00;97470;;;4.2;81.9
23253;BME280;11795;47.054;15.408;2023-02-19T05:52:00;97490;;;4.3;81.9
23253;BME280;11795;47.054;15.408;2023-02-19T05:54:00;97480;;;4.3;81.4
23253;BME280;11795;47.054;15.408;2023-02-19T05:56:00;97490;;;4.2;81.7
23253;BME280;11795;47.054;15.408;2023-02-19T05:58:00;97480;;;4.4;81.3
23253;BME280;11795;47.054;15.408;2023-02-19T06:00:00;97490;;;4.2;81.9
23253;BME280;11795;47.054;15.408;2023-02-19T06:02:00;97470;;;4.3;82.1
23253;BME280;11795;47.054;15.408;2023-02-19T06:04:00;97490;;;4.2;82.8
23253;BME280;11795;47.054;15.408;2023-02-19T06:06:02;97490;;;4.2;83.0
23253;BME280;11795;47.054;15.408;2023-02-19T06:08:00;97480;;;4.3;82.3
23253;BME280;11795;47.054;15.408;2023-02-19T06:10:00;97480;;;4.3;82.6
23253;BME280;11795;47.054;15.408;2023-02-19T06:12:00;97480;;;4.3;82.9
23253;BME280;11795;47.054;15.408;2023-02-19T06:14:00;97480;;;4.3;83.2
23253;BME280;11795;47.054;15.408;2023-02-19T06:16:02;97470;;;4.3;83.1
23253;BME280;11795;47.054;15.408;2023-02-19T06:18:00;97480;;;4.5;82.2
23253;BME280;11795;47.054;15.408;2023-02-19T06:20:00;97480;;;4.4;82.2
23253;BME280;11795;47.054;15.408;2023-02-19T06:22:00;97490;;;4.5;82.3
23253;BME280;11795;47.054;15.408;2023-02-19T06:24:03;97490;;;4.5;81.9
23253;BME280;11795;47.054;15.408;2023-02-19T06:26:05;97490;;;4.5;82.1
23253;BME280;11795;47.054;15.408;2023-02-19T06:28:00;97490;;;4.7;81.4
23253;BME280;11795;47.054;15.408;2023-02-19T06:30:00;97490;;;4.5;81.7
23253;BME280;11795;47.054;15.408;2023-02-19T06:32:00;97490;;;4.6;82.0
23253;BME280;11795;47.054;15.408;2023-02-19T06:34:02;97490;;;4.6;81.6
23253;BME280;11795;47.054;15.408;2023-02-19T06:36:02;97490;;;4.5;82.0
23253;BME280;11795;47.054;15.408;2023-02-19T06:38:00;97490;;;4.7;81.6
23253;BME280;11795;47.054;15.408;2023-02-19T06:40:00;97480;;;4.6;82.3
23253;BME280;11795;47.054;15.408;2023-02-19T06:42:00;97480;;;4.7;82.2
23253;BME280;11795;47.054;15.408;2023-02-19T06:44:00;97480;;;4.8;81.5
23253;BME280;11795;47.054;15.408;2023-02-19T06:46:03;97480;;;4.7;81.8
23253;BME280;11795;47.054;15.408;2023-02-19T06:48:00;97470;;;4.9;81.2
23253;BME280;11795;47.054;15.408;2023-02-19T06:50:00;97470;;;4.8;81.4
23253;BME280;11795;47.054;15.408;2023-02-19T06:52:01;97480;;;5.0;80.6
23253;BME280;11795;47.054;15.408;2023-02-19T06:54:01;97470;;;5.0;80.0
23253;BME280;11795;47.054;15.408;2023-02-19T06:56:02;97490;;;4.9;80.5
23253;BME280;11795;47.054;15.408;2023-02-19T06:58:00;97490;;;5.0;80.1
23253;BME280;11795;47.054;15.408;2023-02-19T07:00:00;97490;;;4.9;80.7
23253;BME280;11795;47.054;15.408;2023-02-19T07:02:00;97490;;;4.9;80.9
23253;BME280;11795;47.054;15.408;2023-02-19T07:04:00;97490;;;5.0;80.5
23253;BME280;11795;47.054;15.408;2023-02-19T07:06:00;97490;;;4.9;81.0
23253;BME280;11795;47.054;15.408;2023-02-19T07:08:00;97490;;;5.2;80.4
23253;BME280;11795;47.054;15.408;2023-02-19T07:10:00;97490;;;5.1;80.6
23253;BME280;11795;47.054;15.408;2023-02-19T07:12:00;97490;;;5.1;80.8
23253;BME280;11795;47.054;15.408;2023-02-19T07:14:03;97500;;;5.2;80.3
23253;BME280;11795;47.054;15.408;2023-02-19T07:16:02;97500;;;5.1;80.7
23253;BME280;11795;47.054;15.408;2023-02-19T07:18:00;97490;;;5.3;80.1
23253;BME280;11795;47.054;15.408;2023-02-19T07:20:00;97500;;;5.2;80.2
23253;BME280;11795;47.054;15.408;2023-02-19T07:22:00;97500;;;5.2;80.5
23253;BME280;11795;47.054;15.408;2023-02-19T07:24:00;97500;;;5.4;80.0
23253;BME280;11795;47.054;15.408;2023-02-19T07:26:01;97510;;;5.3;80.1
23253;BME280;11795;47.054;15.408;2023-02-19T07:28:00;97500;;;5.6;79.5
23253;BME280;11795;47.054;15.408;2023-02-19T07:30:01;97490;;;5.4;79.7
23253;BME280;11795;47.054;15.408;2023-02-19T07:32:01;97480;;;5.4;80.1
23253;BME280;11795;47.054;15.408;2023-02-19T07:34:00;97480;;;5.6;79.5
23253;BME280;11795;47.054;15.408;2023-02-19T07:36:00;97490;;;5.5;79.7
23253;BME280;11795;47.054;15.408;2023-02-19T07:38:00;97490;;;5.7;79.0
23253;BME280;11795;47.054;15.408;2023-02-19T07:40:00;97490;;;5.7;79.2
23253;BME280;11795;47.054;15.408;2023-02-19T07:42:00;97480;;;5.7;79.0
23253;BME280;11795;47.054;15.408;2023-02-19T07:44:00;97480;;;5.9;77.9
23253;BME280;11795;47.054;15.408;2023-02-19T07:46:02;97490;;;5.7;78.4
23253;BME280;11795;47.054;15.408;2023-02-19T07:48:00;97480;;;5.9;78.3
23253;BME280;11795;47.054;15.408;2023-02-19T07:50:00;97490;;;5.8;78.7
23253;BME280;11795;47.054;15.408;2023-02-19T07:52:00;97480;;;5.8;79.0
23253;BME280;11795;47.054;15.408;2023-02-19T07:54:00;97480;;;6.1;77.9
23253;BME280;11795;47.054;15.408;2023-02-19T07:56:02;97490;;;5.8;78.6
23253;BME280;11795;47.054;15.408;2023-02-19T07:58:00;97490;;;6.0;78.5
23253;BME280;11795;47.054;15.408;2023-02-19T08:00:01;97490;;;5.9;78.7
23253;BME280;11795;47.054;15.408;2023-02-19T08:02:14;97490;;;5.9;79.0
23253;BME280;11795;47.054;15.408;2023-02-19T08:04:00;97480;;;6.1;78.2
23253;BME280;11795;47.054;15.408;2023-02-19T08:06:00;97470;;;6.2;77.6
23253;BME280;11795;47.054;15.408;2023-02-19T08:08:00;97460;;;6.2;77.1
23253;BME280;11795;47.054;15.408;2023-02-19T08:10:10;97460;;;6.2;77.1
23253;BME280;11795;47.054;15.408;2023-02-19T08:12:10;97460;;;6.2;77.3
23253;BME280;11795;47.054;15.408;2023-02-19T08:14:00;97470;;;6.3;76.9
23253;BME280;11795;47.054;15.408;2023-02-19T08:16:09;97460;;;6.2;77.0
23253;BME280;11795;47.054;15.408;2023-02-19T08:18:00;97470;;;6.4;76.9
23253;BME280;11795;47.054;15.408;2023-02-19T08:20:00;97480;;;6.3;77.1
23253;BME280;11795;47.054;15.408;2023-02-19T08:22:00;97480;;;6.3;77.5
23253;BME280;11795;47.054;15.408;2023-02-19T08:24:00;97490;;;6.4;76.9
23253;BME280;11795;47.054;15.408;2023-02-19T08:26:01;97480;;;6.5;76.6
23253;BME280;11795;47.054;15.408;2023-02-19T08:28:00;97480;;;6.6;76.0
23253;BME280;11795;47.054;15.408;2023-02-19T08:30:00;97470;;;6.6;75.7
23253;BME280;11795;47.054;15.408;2023-02-19T08:32:00;97480;;;6.6;75.8
23253;BME280;11795;47.054;15.408;2023-02-19T08:34:00;97480;;;6.6;75.6
23253;BME280;11795;47.054;15.408;2023-02-19T08:36:02;97490;;;6.6;75.5
23253;BME280;11795;47.054;15.408;2023-02-19T08:38:00;97490;;;6.8;75.3
23253;BME280;11795;47.054;15.408;2023-02-19T08:40:00;97490;;;6.7;75.5
23253;BME280;11795;47.054;15.408;2023-02-19T08:42:00;97490;;;6.6;75.6
23253;BME280;11795;47.054;15.408;2023-02-19T08:44:00;97480;;;6.7;74.3
23253;BME280;11795;47.054;15.408;2023-02-19T08:46:00;97470;;;6.7;75.0
23253;BME280;11795;47.054;15.408;2023-02-19T08:48:00;97460;;;6.9;74.4
23253;BME280;11795;47.054;15.408;2023-02-19T08:50:00;97460;;;6.8;74.5
23253;BME280;11795;47.054;15.408;2023-02-19T08:52:00;97460;;;6.9;74.6
23253;BME280;11795;47.054;15.408;2023-02-19T08:54:01;97470;;;7.2;74.0
23253;BME280;11795;47.054;15.408;2023-02-19T08:56:03;97470;;;7.2;73.8
23253;BME280;11795;47.054;15.408;2023-02-19T08:58:00;97460;;;7.5;72.3
23253;BME280;11795;47.054;15.408;2023-02-19T09:00:00;97460;;;7.4;72.3
23253;BME280;11795;47.054;15.408;2023-02-19T09:02:00;97480;;;7.6;71.2
23253;BME280;11795;47.054;15.408;2023-02-19T09:04:00;97470;;;7.8;70.5
23253;BME280;11795;47.054;15.408;2023-02-19T09:06:00;97470;;;7.8;70.3
23253;BME280;11795;47.054;15.408;2023-02-19T09:08:00;97470;;;8.0;69.3
23253;BME280;11795;47.054;15.408;2023-02-19T09:10:00;97470;;;8.2;70.3
23253;BME280;11795;47.054;15.408;2023-02-19T09:12:00;97460;;;8.6;69.4
23253;BME280;11795;47.054;15.408;2023-02-19T09:14:01;97470;;;9.1;67.8
23253;BME280;11795;47.054;15.408;2023-02-19T09:16:01;97470;;;9.5;66.6
23253;BME280;11795;47.054;15.408;2023-02-19T09:18:00;97460;;;10.1;65.0
23253;BME280;11795;47.054;15.408;2023-02-19T09:20:00;97460;;;10.4;62.6
23253;BME280;11795;47.054;15.408;2023-02-19T09:22:01;97460;;;10.7;61.8
23253;BME280;11795;47.054;15.408;2023-02-19T09:24:00;97460;;;11.1;60.2
23253;BME280;11795;47.054;15.408;2023-02-19T09:26:01;97460;;;11.3;59.3
23253;BME280;11795;47.054;15.408;2023-02-19T09:28:00;97460;;;11.8;58.2
23253;BME280;11795;47.054;15.408;2023-02-19T09:30:00;97450;;;11.8;57.1
23253;BME280;11795;47.054;15.408;2023-02-19T09:32:00;97450;;;12.1;56.4
23253;BME280;11795;47.054;15.408;2023-02-19T09:34:00;97450;;;12.2;55.1
23253;BME280;11795;47.054;15.408;2023-02-19T09:36:00;97440;;;12.3;55.1
23253;BME280;11795;47.054;15.408;2023-02-19T09:38:02;97440;;;12.7;54.8
23253;BME280;11795;47.054;15.408;2023-02-19T09:40:00;97440;;;12.8;53.2
23253;BME280;11795;47.054;15.408;2023-02-19T09:42:03;97440;;;12.6;53.4
23253;BME280;11795;47.054;15.408;2023-02-19T09:44:02;97440;;;12.7;53.0
23253;BME280;11795;47.054;15.408;2023-02-19T09:46:03;97440;;;12.7;53.4
23253;BME280;11795;47.054;15.408;2023-02-19T09:48:01;97440;;;12.9;53.0
23253;BME280;11795;47.054;15.408;2023-02-19T09:50:05;97440;;;13.1;52.9
23253;BME280;11795;47.054;15.408;2023-02-19T09:52:06;97440;;;13.2;53.0
23253;BME280;11795;47.054;15.408;2023-02-19T09:54:00;97440;;;13.5;52.2
23253;BME280;11795;47.054;15.408;2023-02-19T09:56:00;97440;;;13.5;51.6
23253;BME280;11795;47.054;15.408;2023-02-19T09:58:05;97440;;;13.7;50.7
23253;BME280;11795;47.054;15.408;2023-02-19T10:00:18;97430;;;13.9;50.9
23253;BME280;11795;47.054;15.408;2023-02-19T10:02:04;97430;;;14.0;49.9
23253;BME280;11795;47.054;15.408;2023-02-19T10:04:00;97430;;;14.1;49.5
23253;BME280;11795;47.054;15.408;2023-02-19T10:06:06;97420;;;14.0;49.6
23253;BME280;11795;47.054;15.408;2023-02-19T10:08:04;97420;;;14.1;48.1
23253;BME280;11795;47.054;15.408;2023-02-19T10:10:05;97430;;;14.1;49.3
23253;BME280;11795;47.054;15.408;2023-02-19T10:12:00;97430;;;14.3;48.8
23253;BME280;11795;47.054;15.408;2023-02-19T10:14:03;97430;;;14.7;48.7
23253;BME280;11795;47.054;15.408;2023-02-19T10:16:03;97430;;;14.9;46.0
23253;BME280;11795;47.054;15.408;2023-02-19T10:18:01;97420;;;14.6;46.4
23253;BME280;11795;47.054;15.408;2023-02-19T10:20:03;97420;;;14.5;46.5
23253;BME280;11795;47.054;15.408;2023-02-19T10:22:02;97420;;;14.5;46.4
23253;BME280;11795;47.054;15.408;2023-02-19T10:24:01;97430;;;14.7;46.6
23253;BME280;11795;47.054;15.408;2023-02-19T10:26:00;97430;;;14.7;47.6
23253;BME280;11795;47.054;15.408;2023-02-19T10:28:01;97420;;;15.1;47.1
23253;BME280;11795;47.054;15.408;2023-02-19T10:30:01;97430;;;15.2;45.8
23253;BME280;11795;47.054;15.408;2023-02-19T10:32:11;97430;;;15.5;46.0
23253;BME280;11795;47.054;15.408;2023-02-19T10:34:01;97430;;;15.7;45.5
23253;BME280;11795;47.054;15.408;2023-02-19T10:36:02;97430;;;15.7;45.2
23253;BME280;11795;47.054;15.408;2023-02-19T10:38:01;97420;;;16.1;45.6
23253;BME280;11795;47.054;15.408;2023-02-19T10:40:01;97420;;;16.2;44.4
23253;BME280;11795;47.054;15.408;2023-02-19T10:42:01;97410;;;16.2;44.3
23253;BME280;11795;47.054;15.408;2023-02-19T10:44:04;97410;;;16.5;44.6
23253;BME280;11795;47.054;15.408;2023-02-19T10:46:03;97410;;;16.6;43.6
23253;BME280;11795;47.054;15.408;2023-02-19T10:48:00;97400;;;16.9;43.9
23253;BME280;11795;47.054;15.408;2023-02-19T10:50:01;97400;;;17.0;42.3
23253;BME280;11795;47.054;15.408;2023-02-19T10:52:11;97380;;;16.9;42.5
23253;BME280;11795;47.054;15.408;2023-02-19T10:54:05;97400;;;17.0;43.3
23253;BME280;11795;47.054;15.408;2023-02-19T10:56:06;97400;;;17.2;43.7
23253;BME280;11795;47.054;15.408;2023-02-19T10:58:19;97390;;;17.6;43.2
23253;BME280;11795;47.054;15.408;2023-02-19T11:00:16;97380;;;17.6;42.1
23253;BME280;11795;47.054;15.408;2023-02-19T11:02:02;97380;;;17.6;41.6
23253;BME280;11795;47.054;15.408;2023-02-19T11:04:13;97380;;;17.8;42.0
23253;BME280;11795;47.054;15.408;2023-02-19T11:06:02;97380;;;18.0;41.7
23253;BME280;11795;47.054;15.408;2023-02-19T11:08:00;97370;;;18.4;41.0
23253;BME280;11795;47.054;15.408;2023-02-19T11:10:03;97380;;;18.4;40.4
23253;BME280;11795;47.054;15.408;2023-02-19T11:12:01;97380;;;18.3;40.3
23253;BME280;11795;47.054;15.408;2023-02-19T11:14:03;97380;;;18.6;40.8
23253;BME280;11795;47.054;15.408;2023-02-19T11:16:00;97380;;;18.7;39.5
23253;BME280;11795;47.054;15.408;2023-02-19T11:18:03;97370;;;18.9;39.6